Time;durP1;ratioP1;P1;durP2;ratioP2;P2;SDS_P1;SDS_P2;PMS_P1;PMS_P2;Temp;Humidity;BMP_temperature;BMP_pressure;BME280_temperature;BME280_humidity;BME280_pressure;Samples;Min_cycle;Max_cycle;Signal;HPM_P1;HPM_P2
2022/08/17 00:01:03;;;;;;;;;;;;;;;18.59;81.26;95001.38;5156208;27;972;-49
2022/08/17 00:03:31;;;;;;;;;;;;;;;18.54;81.79;94986.59;5155845;27;1016;-48
2022/08/17 00:06:07;;;;;;;;;;;;;;;18.58;82.10;94997.03;5156022;27;1082;-49
2022/08/17 00:08:35;;;;;;;;;;;;;;;18.58;81.25;95000.56;5137580;27;1071;-49
2022/08/17 00:11:04;;;;;;;;;;;;;;;18.40;81.08;95003.97;5156046;27;1032;-48
2022/08/17 00:13:32;;;;;;;;;;;;;;;18.34;82.46;94996.69;5155841;27;1031;-49
2022/08/17 00:16:00;;;;;;;;;;;;;;;18.40;82.51;94987.72;5155628;27;1913;-49
2022/08/17 00:18:27;;;;;;;;;;;;;;;18.38;82.43;94994.38;5155962;27;1052;-49
2022/08/17 00:20:54;;;;;;;;;;;;;;;18.28;83.10;95000.25;5137147;27;1221;-49
2022/08/17 00:23:20;;;;;;;;;;;;;;;18.33;82.57;94997.75;5155741;27;1043;-49
2022/08/17 00:25:47;;;;;;;;;;;;;;;18.30;83.05;95000.84;5155607;27;992;-49
2022/08/17 00:28:14;;;;;;;;;;;;;;;18.22;83.45;94991.09;5155489;27;1035;-49
2022/08/17 00:30:44;;;;;;;;;;;;;;;18.29;83.06;95000.03;5154374;27;1087;-49
2022/08/17 00:33:12;;;;;;;;;;;;;;;18.16;83.07;94996.53;5155880;27;1062;-49
2022/08/17 00:35:38;;;;;;;;;;;;;;;18.26;82.53;95000.44;5136737;27;1991;-49
2022/08/17 00:38:08;;;;;;;;;;;;;;;18.26;83.06;94994.22;5155544;27;969;-49
2022/08/17 00:40:35;;;;;;;;;;;;;;;18.24;83.17;94993.59;5155310;27;979;-49
2022/08/17 00:43:16;;;;;;;;;;;;;;;18.20;83.17;95001.31;5155362;27;995;-48
2022/08/17 00:45:43;;;;;;;;;;;;;;;18.00;82.90;94987.81;5134224;27;1119;-49
2022/08/17 00:48:10;;;;;;;;;;;;;;;18.15;81.94;94984.88;5099596;27;945;-49
2022/08/17 00:50:37;;;;;;;;;;;;;;;18.19;82.44;94985.28;5134361;27;1032;-49
2022/08/17 00:53:04;;;;;;;;;;;;;;;18.27;81.37;94985.06;5134574;27;984;-49
2022/08/17 00:55:31;;;;;;;;;;;;;;;18.09;82.56;94983.84;5116101;27;910;-49
2022/08/17 00:58:01;;;;;;;;;;;;;;;18.05;82.94;94982.59;5134376;27;1981;-49
2022/08/17 01:00:36;;;;;;;;;;;;;;;18.07;82.33;94977.00;5134394;27;1051;-49
2022/08/17 01:03:05;;;;;;;;;;;;;;;17.94;82.87;94977.84;5134514;27;1037;-49
2022/08/17 01:05:32;;;;;;;;;;;;;;;17.91;83.27;94979.09;5134335;27;968;-48
2022/08/17 01:08:01;;;;;;;;;;;;;;;17.78;83.50;94981.81;5134385;27;1000;-48
2022/08/17 01:10:39;;;;;;;;;;;;;;;17.60;84.03;94987.81;5134076;28;1032;-49
2022/08/17 01:13:06;;;;;;;;;;;;;;;17.54;84.47;94988.66;5134238;28;1028;-49
2022/08/17 01:15:36;;;;;;;;;;;;;;;17.63;84.60;94992.84;5134111;28;1052;-50
2022/08/17 01:18:04;;;;;;;;;;;;;;;17.70;84.19;94996.38;5134166;28;1281;-49
2022/08/17 01:20:31;;;;;;;;;;;;;;;17.83;83.60;95005.50;5134176;28;1036;-49
2022/08/17 01:22:58;;;;;;;;;;;;;;;17.86;82.62;95002.41;5134185;28;1080;-49
2022/08/17 01:25:24;;;;;;;;;;;;;;;17.66;83.33;95011.34;5098942;28;1468;-49
2022/08/17 01:27:50;;;;;;;;;;;;;;;17.59;84.42;95006.97;5099259;28;1570;-49
2022/08/17 01:30:17;;;;;;;;;;;;;;;17.73;83.62;95003.22;5115676;28;1096;-48
2022/08/17 01:32:44;;;;;;;;;;;;;;;17.64;84.22;95001.75;5099114;28;1443;-49
2022/08/17 01:35:11;;;;;;;;;;;;;;;17.60;84.44;94995.94;5133762;28;1119;-50
2022/08/17 01:37:39;;;;;;;;;;;;;;;17.71;84.36;94995.31;5098793;28;1918;-49
2022/08/17 01:40:29;;;;;;;;;;;;;;;17.57;84.37;94999.06;5133780;27;1091;-49
2022/08/17 01:42:57;;;;;;;;;;;;;;;17.27;85.13;95004.88;5127448;27;1842;-50
2022/08/17 01:45:26;;;;;;;;;;;;;;;17.21;85.59;95002.19;5157132;27;1201;-49
2022/08/17 01:47:53;;;;;;;;;;;;;;;17.14;85.61;94999.44;5136520;27;1514;-50
2022/08/17 01:50:22;;;;;;;;;;;;;;;17.15;85.91;94999.25;5137949;27;1051;-48
2022/08/17 01:52:50;;;;;;;;;;;;;;;17.22;85.59;95003.81;5138108;27;963;-48
2022/08/17 01:55:19;;;;;;;;;;;;;;;17.28;85.65;95006.56;5137905;27;2009;-49
2022/08/17 01:57:45;;;;;;;;;;;;;;;17.28;85.00;95005.69;5137831;27;1910;-49
2022/08/17 02:00:13;;;;;;;;;;;;;;;17.23;85.59;95002.81;5137607;27;1044;-50
2022/08/17 02:02:39;;;;;;;;;;;;;;;17.11;85.48;95005.25;5137681;27;1118;-49
2022/08/17 02:05:06;;;;;;;;;;;;;;;17.20;86.00;95003.19;5137627;27;1035;-49
2022/08/17 02:07:35;;;;;;;;;;;;;;;17.22;85.46;95001.94;5137509;27;1020;-49
2022/08/17 02:10:03;;;;;;;;;;;;;;;17.23;86.23;94995.53;5137567;27;1043;-50
2022/08/17 02:12:30;;;;;;;;;;;;;;;17.26;85.08;95003.19;5137492;27;1015;-49
2022/08/17 02:14:56;;;;;;;;;;;;;;;17.23;85.01;95002.81;5137480;27;1115;-49
2022/08/17 02:17:22;;;;;;;;;;;;;;;17.05;85.80;95000.69;5135906;27;1998;-49
2022/08/17 02:19:48;;;;;;;;;;;;;;;16.96;86.19;95003.59;5137612;27;972;-49
2022/08/17 02:22:17;;;;;;;;;;;;;;;17.02;85.66;95011.91;5135856;27;1110;-50
2022/08/17 02:24:43;;;;;;;;;;;;;;;17.07;85.39;95010.22;5137328;27;1036;-48
2022/08/17 02:27:09;;;;;;;;;;;;;;;17.02;85.43;95006.50;5137138;27;964;-48
2022/08/17 02:29:36;;;;;;;;;;;;;;;17.01;86.00;95004.84;5135942;27;1075;-48
2022/08/17 02:32:03;;;;;;;;;;;;;;;17.13;85.07;95003.19;5136969;27;1126;-49
2022/08/17 02:34:31;;;;;;;;;;;;;;;17.14;85.31;95007.56;5137316;27;1036;-48
2022/08/17 02:36:57;;;;;;;;;;;;;;;17.03;85.86;95003.59;5137002;27;1914;-49
2022/08/17 02:39:23;;;;;;;;;;;;;;;16.85;85.98;95001.47;5136926;27;1055;-50
2022/08/17 02:41:49;;;;;;;;;;;;;;;16.87;86.61;95014.78;5135602;27;1087;-49
2022/08/17 02:44:15;;;;;;;;;;;;;;;16.88;86.58;95011.03;5127165;27;1148;-48
2022/08/17 02:46:41;;;;;;;;;;;;;;;16.82;86.69;95012.69;5126090;27;1083;-49
2022/08/17 02:49:07;;;;;;;;;;;;;;;16.93;86.26;95009.38;5136781;27;1091;-48
2022/08/17 02:51:34;;;;;;;;;;;;;;;17.01;86.03;95010.22;5118530;27;1188;-50
2022/08/17 02:54:00;;;;;;;;;;;;;;;17.03;85.57;95011.69;5135656;27;1111;-49
2022/08/17 02:56:27;;;;;;;;;;;;;;;16.94;85.87;95005.66;5136445;27;1914;-50
2022/08/17 02:58:53;;;;;;;;;;;;;;;16.74;86.58;95007.44;5101731;27;1004;-49
2022/08/17 03:01:19;;;;;;;;;;;;;;;16.89;86.00;95005.44;5118039;27;1013;-53
2022/08/17 03:03:45;;;;;;;;;;;;;;;16.88;86.75;95008.31;5118355;27;1043;-48
2022/08/17 03:06:11;;;;;;;;;;;;;;;16.82;86.62;95009.13;5136681;27;1032;-48
2022/08/17 03:08:39;;;;;;;;;;;;;;;16.84;86.88;95010.59;5136356;27;1122;-48
2022/08/17 03:11:05;;;;;;;;;;;;;;;16.83;86.12;95003.56;5136386;27;1049;-49
2022/08/17 03:13:31;;;;;;;;;;;;;;;16.81;86.42;94994.78;5136091;27;1126;-49
2022/08/17 03:15:57;;;;;;;;;;;;;;;16.67;86.61;95010.09;5136152;27;1986;-49
2022/08/17 03:18:24;;;;;;;;;;;;;;;16.64;87.39;95009.66;5136213;27;2166;-49
2022/08/17 03:20:51;;;;;;;;;;;;;;;16.58;87.30;95014.84;5136101;27;913;-49
2022/08/17 03:23:17;;;;;;;;;;;;;;;16.67;86.83;95014.66;5136039;27;1067;-49
2022/08/17 03:25:45;;;;;;;;;;;;;;;16.66;86.79;95018.41;5136055;27;1020;-50
2022/08/17 03:28:11;;;;;;;;;;;;;;;16.53;86.71;95022.72;5135757;27;1003;-49
2022/08/17 03:30:38;;;;;;;;;;;;;;;16.44;87.44;95017.69;5117840;27;1032;-49
2022/08/17 03:33:05;;;;;;;;;;;;;;;16.46;87.08;95013.75;5135854;27;1012;-48
2022/08/17 03:35:33;;;;;;;;;;;;;;;16.67;86.06;95012.78;5136102;27;1035;-49
2022/08/17 03:37:59;;;;;;;;;;;;;;;16.71;85.83;95010.53;5135729;27;1906;-49
2022/08/17 03:40:26;;;;;;;;;;;;;;;16.53;86.45;95014.63;5135818;27;965;-49
2022/08/17 03:42:53;;;;;;;;;;;;;;;16.41;87.69;95018.94;5117315;27;1029;-48
2022/08/17 03:56:41;;;;;;;;;;;;;;;16.38;87.80;95022.84;5154366;27;1192;-48
2022/08/17 03:56:42;;;;;;;;;;;;;;;16.61;86.87;95026.28;5156159;27;1902;-49
2022/08/17 03:59:15;;;;;;;;;;;;;;;16.51;87.76;95030.19;5155967;27;1148;-49
2022/08/17 04:01:45;;;;;;;;;;;;;;;16.42;87.86;95034.09;5156049;27;1094;-49
2022/08/17 04:04:11;;;;;;;;;;;;;;;16.48;88.12;95033.28;5155600;27;1059;-49
2022/08/17 04:06:39;;;;;;;;;;;;;;;16.61;87.83;95039.78;5137862;27;977;-49
2022/08/17 04:09:05;;;;;;;;;;;;;;;16.69;87.75;95039.59;5137465;27;1991;-49
2022/08/17 04:11:32;;;;;;;;;;;;;;;16.80;87.78;95047.13;5155970;27;1111;-49
2022/08/17 04:13:59;;;;;;;;;;;;;;;16.86;87.24;95045.50;5137299;27;1040;-49
2022/08/17 04:16:25;;;;;;;;;;;;;;;16.82;87.73;95044.22;5137268;27;1901;-49
2022/08/17 04:18:51;;;;;;;;;;;;;;;16.84;87.72;95047.56;5155576;27;1036;-49
2022/08/17 04:21:18;;;;;;;;;;;;;;;16.84;87.65;95047.56;5155852;27;1031;-49
2022/08/17 04:23:44;;;;;;;;;;;;;;;16.89;87.43;95050.50;5137302;27;1467;-50
2022/08/17 04:26:13;;;;;;;;;;;;;;;16.94;88.14;95056.97;5155579;27;1099;-50
2022/08/17 04:28:40;;;;;;;;;;;;;;;16.97;88.29;95055.72;5155525;27;987;-49
2022/08/17 04:31:08;;;;;;;;;;;;;;;17.15;87.78;95060.56;5155736;27;2119;-49
2022/08/17 04:33:34;;;;;;;;;;;;;;;17.29;87.42;95066.81;5155256;27;1036;-48
2022/08/17 04:36:01;;;;;;;;;;;;;;;17.47;87.07;95067.06;5137264;27;1992;-48
2022/08/17 04:38:29;;;;;;;;;;;;;;;17.60;86.31;95065.41;5136947;27;1028;-49
2022/08/17 04:43:41;;;;;;;;;;;;;;;17.82;86.72;95066.03;5150543;27;1205;-49
2022/08/17 04:46:08;;;;;;;;;;;;;;;17.97;86.71;95066.69;5134503;27;1530;-50
2022/08/17 04:48:36;;;;;;;;;;;;;;;18.02;86.65;95066.91;5134495;27;1020;-49
2022/08/17 04:51:08;;;;;;;;;;;;;;;18.07;86.61;95069.78;5134571;27;971;-49
2022/08/17 04:53:34;;;;;;;;;;;;;;;18.28;86.19;95071.44;5134312;27;1111;-49
2022/08/17 04:56:01;;;;;;;;;;;;;;;18.51;85.26;95065.53;5116228;27;1995;-49
2022/08/17 04:58:27;;;;;;;;;;;;;;;18.70;84.67;95068.41;5134522;27;1941;-48
2022/08/17 05:00:53;;;;;;;;;;;;;;;18.88;83.24;95065.88;5116365;27;1515;-49
2022/08/17 05:03:19;;;;;;;;;;;;;;;19.06;81.94;95072.47;5134137;27;1015;-49
2022/08/17 05:05:48;;;;;;;;;;;;;;;19.14;80.81;95074.91;5134508;27;1064;-49
2022/08/17 05:08:16;;;;;;;;;;;;;;;19.19;80.45;95083.22;5134227;27;1047;-49
2022/08/17 05:10:42;;;;;;;;;;;;;;;19.29;80.62;95080.03;5134169;28;1028;-48
2022/08/17 05:13:14;;;;;;;;;;;;;;;19.42;80.76;95084.56;5134418;28;973;-48
2022/08/17 05:15:41;;;;;;;;;;;;;;;19.43;81.33;95084.34;5134588;27;1020;-48
2022/08/17 05:18:07;;;;;;;;;;;;;;;19.34;80.59;95077.53;5138660;27;1910;-48
2022/08/17 05:20:34;;;;;;;;;;;;;;;19.50;79.74;95084.31;5138334;27;1099;-48
2022/08/17 05:23:05;;;;;;;;;;;;;;;19.48;80.66;95083.69;5138413;27;1856;-49
2022/08/17 05:25:36;;;;;;;;;;;;;;;19.55;80.63;95089.91;5138275;27;1037;-49
2022/08/17 05:28:03;;;;;;;;;;;;;;;19.65;78.76;95092.13;5138296;27;1086;-49
2022/08/17 05:30:29;;;;;;;;;;;;;;;19.85;78.16;95083.91;5138157;27;1024;-48
2022/08/17 05:33:00;;;;;;;;;;;;;;;19.95;77.70;95094.25;5138311;27;1103;-49
2022/08/17 05:35:28;;;;;;;;;;;;;;;20.19;77.67;95103.47;5119818;27;953;-49
2022/08/17 05:37:54;;;;;;;;;;;;;;;20.42;76.87;95097.38;5138076;27;1909;-48
2022/08/17 05:40:21;;;;;;;;;;;;;;;20.50;75.09;95096.28;5138083;27;1115;-49
2022/08/17 05:42:48;;;;;;;;;;;;;;;20.57;75.29;95088.88;5138542;27;977;-49
2022/08/17 05:45:15;;;;;;;;;;;;;;;20.54;76.31;95094.75;5155767;27;1857;-49
2022/08/17 05:47:42;;;;;;;;;;;;;;;20.50;75.79;95096.28;5140273;27;1194;-49
2022/08/17 05:50:09;;;;;;;;;;;;;;;20.48;74.25;95100.03;5158549;27;1019;-49
2022/08/17 05:53:08;;;;;;;;;;;;;;;20.52;74.79;95096.88;5158553;27;893;-49
2022/08/17 05:55:43;;;;;;;;;;;;;;;20.70;74.30;95094.22;5101770;27;1331;-48
2022/08/17 05:58:10;;;;;;;;;;;;;;;20.86;74.85;95090.88;5158536;27;1914;-49
2022/08/17 06:00:41;;;;;;;;;;;;;;;20.91;76.28;95092.94;5158333;27;1196;-48
2022/08/17 06:03:27;;;;;;;;;;;;;;;20.99;74.61;95084.47;5158414;27;1008;-49
2022/08/17 06:05:53;;;;;;;;;;;;;;;21.24;74.57;95091.69;5158436;27;1055;-49
2022/08/17 06:08:38;;;;;;;;;;;;;;;21.43;73.69;95097.91;5158241;27;1099;-49
2022/08/17 06:11:10;;;;;;;;;;;;;;;21.67;73.05;95087.97;5158106;27;1062;-49
2022/08/17 06:14:09;;;;;;;;;;;;;;;21.82;72.30;95084.84;5140076;27;1606;-49
2022/08/17 06:16:42;;;;;;;;;;;;;;;21.93;73.15;95083.19;5101493;27;1909;-49
2022/08/17 06:19:34;;;;;;;;;;;;;;;22.14;73.51;95087.22;5158172;27;1008;-49
2022/08/17 06:22:01;;;;;;;;;;;;;;;22.44;72.13;95089.06;5153523;27;1115;-49
2022/08/17 06:24:33;;;;;;;;;;;;;;;22.60;71.56;95086.47;5158089;27;1035;-49
2022/08/17 06:27:08;;;;;;;;;;;;;;;22.82;70.85;95083.09;5158187;27;999;-49
2022/08/17 06:29:43;;;;;;;;;;;;;;;22.98;69.05;95090.56;5157862;27;960;-49
2022/08/17 06:32:11;;;;;;;;;;;;;;;23.07;69.40;95092.94;5157858;27;1000;-49
2022/08/17 06:34:37;;;;;;;;;;;;;;;23.11;66.73;95088.69;5157680;27;1197;-49
2022/08/17 06:37:09;;;;;;;;;;;;;;;23.29;67.48;95083.03;5157640;27;1913;-49
2022/08/17 06:39:55;;;;;;;;;;;;;;;23.38;69.84;95080.75;5157535;27;1028;-49
2022/08/17 06:42:43;;;;;;;;;;;;;;;23.42;67.01;95092.84;5157624;27;1016;-49
2022/08/17 06:45:13;;;;;;;;;;;;;;;23.67;68.15;95091.66;5139957;27;1157;-49
2022/08/17 06:47:51;;;;;;;;;;;;;;;23.86;66.58;95087.66;5136761;27;1163;-49
2022/08/17 06:50:33;;;;;;;;;;;;;;;24.14;66.23;95089.50;5136673;27;976;-49
2022/08/17 06:53:20;;;;;;;;;;;;;;;24.27;65.71;95093.00;5136761;27;1032;-49
2022/08/17 06:56:09;;;;;;;;;;;;;;;24.63;64.18;95088.13;5119164;27;1673;-49
2022/08/17 06:58:36;;;;;;;;;;;;;;;24.94;63.11;95078.44;5123459;27;1119;-49
2022/08/17 07:01:14;;;;;;;;;;;;;;;25.15;63.00;95085.00;5136443;27;1013;-49
2022/08/17 07:03:43;;;;;;;;;;;;;;;25.40;62.82;95076.31;5136456;27;1012;-49
2022/08/17 07:06:13;;;;;;;;;;;;;;;25.40;61.28;95076.31;5136252;27;996;-49
2022/08/17 07:08:58;;;;;;;;;;;;;;;25.57;62.23;95075.38;5136525;27;1032;-49
2022/08/17 07:11:26;;;;;;;;;;;;;;;25.82;61.79;95081.16;5136138;27;1851;-49
2022/08/17 07:14:04;;;;;;;;;;;;;;;26.00;60.53;95081.88;5136303;27;1067;-49
2022/08/17 07:16:30;;;;;;;;;;;;;;;26.21;59.11;95085.63;5136299;27;1913;-49
2022/08/17 07:18:57;;;;;;;;;;;;;;;26.34;60.52;95082.44;5136643;27;972;-49
2022/08/17 07:21:23;;;;;;;;;;;;;;;26.52;59.72;95088.59;5135923;27;1141;-49
2022/08/17 07:23:52;;;;;;;;;;;;;;;26.76;58.65;95089.91;5136076;27;1024;-49
2022/08/17 07:26:22;;;;;;;;;;;;;;;26.84;58.32;95088.56;5135930;27;992;-49
2022/08/17 07:28:48;;;;;;;;;;;;;;;26.88;55.86;95078.72;5135990;27;1016;-49
2022/08/17 07:31:16;;;;;;;;;;;;;;;26.84;57.53;95091.31;5135954;27;1031;-49
2022/08/17 07:33:58;;;;;;;;;;;;;;;26.79;57.90;95083.06;5135986;27;1091;-50
2022/08/17 07:36:25;;;;;;;;;;;;;;;26.86;57.85;95083.66;5135673;27;1914;-50
2022/08/17 07:38:56;;;;;;;;;;;;;;;26.84;57.51;95091.31;5135430;27;972;-49
2022/08/17 07:41:22;;;;;;;;;;;;;;;26.90;54.63;95083.94;5135565;27;1013;-49
2022/08/17 07:43:51;;;;;;;;;;;;;;;26.80;55.78;95082.78;5141633;27;1149;-50
2022/08/17 07:49:09;;;;;;;;;;;;;;;26.76;56.57;95078.94;5156221;27;1024;-49
2022/08/17 07:51:36;;;;;;;;;;;;;;;26.69;56.99;95078.31;5156161;27;1012;-49
2022/08/17 07:54:22;;;;;;;;;;;;;;;26.51;56.57;95076.00;5156453;27;1015;-49
2022/08/17 07:56:48;;;;;;;;;;;;;;;26.43;58.77;95080.88;5155951;27;1906;-49
2022/08/17 07:59:31;;;;;;;;;;;;;;;26.52;58.40;95070.22;5156168;27;948;-49
2022/08/17 08:01:57;;;;;;;;;;;;;;;26.53;59.58;95065.59;5155992;27;1036;-49
2022/08/17 08:04:29;;;;;;;;;;;;;;;26.63;57.58;95071.16;5155928;27;1066;-49
2022/08/17 08:07:04;;;;;;;;;;;;;;;26.73;58.47;95076.75;5156091;27;1024;-49
2022/08/17 08:09:33;;;;;;;;;;;;;;;26.87;58.29;95074.34;5156183;27;1052;-49
2022/08/17 08:12:20;;;;;;;;;;;;;;;26.65;55.62;95066.25;5155844;27;1114;-49
2022/08/17 08:14:57;;;;;;;;;;;;;;;26.85;59.03;95065.56;5155924;27;1030;-49
2022/08/17 08:17:26;;;;;;;;;;;;;;;27.14;57.74;95062.41;5155442;27;1909;-49
2022/08/17 08:19:52;;;;;;;;;;;;;;;27.26;57.22;95063.88;5155776;27;929;-49
2022/08/17 08:22:22;;;;;;;;;;;;;;;27.34;56.93;95061.69;5155571;27;1121;-50
2022/08/17 08:25:08;;;;;;;;;;;;;;;27.35;54.35;95058.66;5155711;27;917;-49
2022/08/17 08:27:38;;;;;;;;;;;;;;;27.35;53.67;95057.84;5103208;27;1182;-49
2022/08/17 08:30:09;;;;;;;;;;;;;;;27.52;55.88;95052.13;5155548;27;1021;-50
2022/08/17 08:32:54;;;;;;;;;;;;;;;27.53;53.41;95046.38;5155532;27;977;-50
2022/08/17 08:35:25;;;;;;;;;;;;;;;27.58;52.56;95042.81;5155509;27;1031;-50
2022/08/17 08:37:58;;;;;;;;;;;;;;;27.70;54.61;95051.66;5155309;27;1989;-50
2022/08/17 08:40:39;;;;;;;;;;;;;;;27.75;52.03;95045.31;5155602;27;949;-49
2022/08/17 08:43:09;;;;;;;;;;;;;;;27.70;51.31;95051.66;5155302;27;1029;-50
2022/08/17 08:45:38;;;;;;;;;;;;;;;27.80;50.06;95054.41;5134614;27;1239;-50
2022/08/17 08:48:04;;;;;;;;;;;;;;;27.95;49.56;95047.31;5134353;27;1095;-50
2022/08/17 08:50:39;;;;;;;;;;;;;;;28.10;51.32;95039.06;5134035;27;1240;-50
2022/08/17 08:53:11;;;;;;;;;;;;;;;28.21;51.73;95046.22;5134297;27;1083;-50
2022/08/17 08:55:50;;;;;;;;;;;;;;;28.29;51.71;95044.03;5134697;27;952;-50
2022/08/17 08:58:20;;;;;;;;;;;;;;;28.30;49.40;95040.97;5134261;27;1901;-50
2022/08/17 09:00:50;;;;;;;;;;;;;;;28.42;50.91;95043.47;5134465;27;1083;-50
2022/08/17 09:03:19;;;;;;;;;;;;;;;28.45;50.38;95042.09;5134384;27;1037;-50
2022/08/17 09:06:02;;;;;;;;;;;;;;;28.55;51.17;95042.94;5134382;27;1041;-50
2022/08/17 09:08:28;;;;;;;;;;;;;;;28.68;52.22;95038.75;5134201;27;1071;-50
2022/08/17 09:11:10;;;;;;;;;;;;;;;28.71;52.06;95029.16;5116073;28;1028;-50
2022/08/17 09:13:56;;;;;;;;;;;;;;;28.71;49.97;95031.91;5134127;28;1044;-50
2022/08/17 09:16:28;;;;;;;;;;;;;;;28.74;48.49;95028.56;5134156;28;1909;-50
2022/08/17 09:19:01;;;;;;;;;;;;;;;28.83;47.43;95023.34;5134185;28;1043;-50
2022/08/17 09:21:40;;;;;;;;;;;;;;;28.88;47.75;95024.16;5134204;28;1016;-50
2022/08/17 09:24:11;;;;;;;;;;;;;;;28.96;48.25;95026.31;5134277;28;999;-50
2022/08/17 09:26:47;;;;;;;;;;;;;;;28.99;48.98;95030.44;5134229;28;1028;-50
2022/08/17 09:29:15;;;;;;;;;;;;;;;28.98;48.72;95028.78;5134056;28;1040;-50
2022/08/17 09:31:55;;;;;;;;;;;;;;;29.11;48.25;95027.38;5134209;28;1121;-50
2022/08/17 09:34:37;;;;;;;;;;;;;;;29.23;48.15;95027.06;5133896;28;973;-51
2022/08/17 09:37:22;;;;;;;;;;;;;;;29.34;48.24;95025.94;5134165;28;1902;-51
2022/08/17 09:40:00;;;;;;;;;;;;;;;29.35;47.67;95022.06;5134494;28;968;-51
2022/08/17 09:42:36;;;;;;;;;;;;;;;29.34;46.41;95020.41;5133921;28;1008;-51
2022/08/17 09:45:21;;;;;;;;;;;;;;;29.34;46.25;95021.22;5150157;27;2032;-51
2022/08/17 09:47:50;;;;;;;;;;;;;;;29.29;49.40;95006.66;5154353;27;1083;-51
2022/08/17 09:50:20;;;;;;;;;;;;;;;29.41;48.76;95007.16;5154684;27;1040;-51
2022/08/17 09:52:49;;;;;;;;;;;;;;;29.52;47.21;95010.66;5154816;27;971;-50
2022/08/17 09:55:15;;;;;;;;;;;;;;;29.67;46.37;95012.50;5154601;27;1055;-50
2022/08/17 09:57:53;;;;;;;;;;;;;;;29.73;47.22;95011.44;5154688;27;1901;-50
2022/08/17 10:00:22;;;;;;;;;;;;;;;29.77;47.65;95006.97;5154642;27;952;-50
2022/08/17 10:02:54;;;;;;;;;;;;;;;29.73;46.90;95015.00;5156656;27;1035;-51
2022/08/17 10:05:44;;;;;;;;;;;;;;;29.71;48.01;95013.59;5158343;27;973;-50
2022/08/17 10:08:29;;;;;;;;;;;;;;;29.63;46.54;95026.03;5158163;27;1028;-50
2022/08/17 10:11:05;;;;;;;;;;;;;;;29.69;45.96;95026.81;5158433;27;1043;-50
2022/08/17 10:13:31;;;;;;;;;;;;;;;29.57;46.43;95019.72;5158276;27;1015;-50
2022/08/17 10:16:06;;;;;;;;;;;;;;;29.57;46.91;95022.47;5158165;27;1918;-50
2022/08/17 10:18:45;;;;;;;;;;;;;;;29.64;46.80;95024.13;5158292;27;957;-51
2022/08/17 10:26:52;;;;;;;;;;;;;;;29.23;44.72;95021.56;5158112;27;1953;-51
2022/08/17 10:29:21;;;;;;;;;;;;;;;28.91;46.11;95034.59;5157750;27;1052;-50
2022/08/17 10:31:50;;;;;;;;;;;;;;;28.72;47.37;95030.78;5158025;27;967;-51
2022/08/17 10:34:22;;;;;;;;;;;;;;;28.49;47.56;95027.50;5157627;27;921;-51
2022/08/17 10:37:00;;;;;;;;;;;;;;;28.30;48.26;95020.94;5157690;27;1990;-51
2022/08/17 10:39:44;;;;;;;;;;;;;;;28.07;49.35;95017.63;5157575;27;980;-51
2022/08/17 10:42:28;;;;;;;;;;;;;;;27.97;50.11;95017.63;5157596;27;1028;-50
2022/08/17 10:44:59;;;;;;;;;;;;;;;27.95;49.38;95019.84;5142248;27;1156;-51
2022/08/17 10:47:45;;;;;;;;;;;;;;;28.04;50.18;95009.97;5136649;27;1265;-50
2022/08/17 10:50:29;;;;;;;;;;;;;;;28.31;50.45;95008.84;5136556;27;1751;-51
2022/08/17 10:52:55;;;;;;;;;;;;;;;28.69;49.57;95009.34;5136935;27;1039;-51
2022/08/17 10:55:24;;;;;;;;;;;;;;;29.10;47.65;95011.94;5136539;27;976;-50
2022/08/17 10:57:53;;;;;;;;;;;;;;;29.39;48.66;95006.63;5136555;27;1909;-50
2022/08/17 11:00:20;;;;;;;;;;;;;;;29.50;47.14;94999.97;5136376;27;1036;-50
2022/08/17 11:02:53;;;;;;;;;;;;;;;29.69;45.21;94991.00;5136778;27;1015;-50
2022/08/17 11:05:34;;;;;;;;;;;;;;;29.80;43.58;94991.81;5136237;27;1075;-50
2022/08/17 11:08:04;;;;;;;;;;;;;;;29.77;43.55;94993.22;5136531;27;1040;-50
2022/08/17 11:10:30;;;;;;;;;;;;;;;29.77;46.21;95001.47;5136220;27;1087;-51
2022/08/17 11:13:05;;;;;;;;;;;;;;;29.83;44.95;94994.00;5136333;27;984;-50
2022/08/17 11:15:36;;;;;;;;;;;;;;;29.71;45.13;94986.03;5135732;27;1020;-50
2022/08/17 11:18:02;;;;;;;;;;;;;;;29.42;44.97;94983.19;5136167;27;1913;-50
2022/08/17 11:20:40;;;;;;;;;;;;;;;29.28;45.54;94989.34;5136153;27;1034;-50
2022/08/17 11:23:06;;;;;;;;;;;;;;;29.00;45.59;94988.88;5136405;27;1095;-50
2022/08/17 11:25:32;;;;;;;;;;;;;;;28.85;47.12;94977.09;5136003;27;1004;-50
2022/08/17 11:28:07;;;;;;;;;;;;;;;28.80;47.33;94984.28;5136308;27;1056;-50
2022/08/17 11:30:39;;;;;;;;;;;;;;;28.76;48.30;94987.84;5136040;27;1044;-51
2022/08/17 11:33:23;;;;;;;;;;;;;;;28.98;48.42;94982.81;5135856;27;1036;-50
2022/08/17 11:35:54;;;;;;;;;;;;;;;29.23;46.08;94975.59;5135794;27;1032;-51
2022/08/17 11:38:25;;;;;;;;;;;;;;;29.38;46.99;94974.69;5135761;27;1910;-51
2022/08/17 11:40:57;;;;;;;;;;;;;;;29.55;47.51;94983.38;5135727;27;1820;-50
2022/08/17 11:43:44;;;;;;;;;;;;;;;29.59;46.92;94980.88;5137805;27;1200;-50
2022/08/17 11:51:31;;;;;;;;;;;;;;;29.59;46.83;94980.88;5156332;27;1237;-51
2022/08/17 11:51:59;;;;;;;;;;;;;;;29.34;44.74;94970.84;5156378;27;976;-51
2022/08/17 11:54:36;;;;;;;;;;;;;;;29.38;46.59;94972.75;5156229;27;964;-51
2022/08/17 11:57:21;;;;;;;;;;;;;;;29.27;45.30;94975.84;5156200;27;1989;-51
2022/08/17 11:59:47;;;;;;;;;;;;;;;29.05;46.68;94973.47;5156106;27;957;-50
2022/08/17 12:02:31;;;;;;;;;;;;;;;29.01;47.29;94974.03;5156175;27;953;-50
2022/08/17 12:05:15;;;;;;;;;;;;;;;29.05;45.99;94970.72;5156202;27;1008;-51
2022/08/17 12:07:44;;;;;;;;;;;;;;;29.19;47.39;94967.06;5156064;27;1052;-51
2022/08/17 12:10:12;;;;;;;;;;;;;;;29.23;45.82;94963.75;5155883;27;1071;-50
2022/08/17 12:12:42;;;;;;;;;;;;;;;29.34;46.74;94966.16;5155998;27;957;-51
2022/08/17 12:15:16;;;;;;;;;;;;;;;29.46;46.15;94960.31;5155644;27;1011;-51
2022/08/17 12:17:49;;;;;;;;;;;;;;;29.51;45.58;94964.97;5155879;27;1905;-50
2022/08/17 12:20:22;;;;;;;;;;;;;;;29.51;45.96;94954.78;5155738;27;949;-51
2022/08/17 12:22:52;;;;;;;;;;;;;;;29.53;46.00;94954.50;5155901;27;1019;-51
2022/08/17 12:25:36;;;;;;;;;;;;;;;29.58;44.59;94958.03;5155383;27;1666;-51
2022/08/17 12:28:02;;;;;;;;;;;;;;;29.67;43.71;94950.00;5155798;27;1027;-51
2022/08/17 12:30:28;;;;;;;;;;;;;;;29.74;44.52;94947.75;5155657;27;1055;-51
2022/08/17 12:32:55;;;;;;;;;;;;;;;29.76;44.83;94950.22;5155586;27;1041;-50
2022/08/17 12:35:32;;;;;;;;;;;;;;;29.65;46.41;94949.44;5155281;27;1051;-50
2022/08/17 12:37:58;;;;;;;;;;;;;;;29.41;44.27;94948.53;5155441;27;1981;-50
2022/08/17 12:40:26;;;;;;;;;;;;;;;29.36;44.06;94943.88;5155166;27;1312;-50
2022/08/17 12:43:00;;;;;;;;;;;;;;;29.50;45.44;94941.28;5155427;27;1107;-51
2022/08/17 12:45:28;;;;;;;;;;;;;;;29.64;45.68;94938.72;5135549;27;1160;-51
2022/08/17 12:48:06;;;;;;;;;;;;;;;29.75;47.30;94948.59;5134482;27;1320;-49
2022/08/17 12:50:38;;;;;;;;;;;;;;;29.65;47.37;94943.13;5134315;27;1079;-48
2022/08/17 12:53:14;;;;;;;;;;;;;;;29.73;46.60;94934.28;5134720;27;1053;-49
2022/08/17 12:55:41;;;;;;;;;;;;;;;29.88;45.71;94938.81;5134387;27;1091;-49
2022/08/17 12:58:11;;;;;;;;;;;;;;;29.96;46.52;94941.78;5134287;27;1906;-49
2022/08/17 13:00:40;;;;;;;;;;;;;;;29.89;46.02;94943.25;5134302;27;973;-48
2022/08/17 13:03:11;;;;;;;;;;;;;;;29.84;45.95;94938.59;5134362;27;1003;-48
2022/08/17 13:05:40;;;;;;;;;;;;;;;29.78;47.10;94937.81;5134691;27;960;-48
2022/08/17 13:08:13;;;;;;;;;;;;;;;29.66;46.82;94942.81;5134470;27;1019;-49
2022/08/17 13:10:40;;;;;;;;;;;;;;;29.51;45.61;94942.94;5134180;27;1079;-48
2022/08/17 13:13:19;;;;;;;;;;;;;;;29.58;46.21;94947.03;5134200;28;1003;-48
2022/08/17 13:15:54;;;;;;;;;;;;;;;29.57;46.00;94941.78;5134068;28;984;-50
2022/08/17 13:18:32;;;;;;;;;;;;;;;29.56;46.13;94945.66;5134116;28;1977;-50
2022/08/17 13:20:58;;;;;;;;;;;;;;;29.58;46.13;94943.44;5134256;28;983;-50
2022/08/17 13:23:27;;;;;;;;;;;;;;;29.54;45.83;94942.38;5134188;28;1187;-50
2022/08/17 13:25:54;;;;;;;;;;;;;;;29.49;44.68;94939.66;5134109;28;972;-51
2022/08/17 13:28:21;;;;;;;;;;;;;;;29.49;44.51;94939.66;5134063;28;1055;-51
2022/08/17 13:30:47;;;;;;;;;;;;;;;29.50;43.22;94941.28;5134068;28;929;-50
2022/08/17 13:33:23;;;;;;;;;;;;;;;29.34;45.14;94943.31;5133968;28;1866;-51
2022/08/17 13:35:50;;;;;;;;;;;;;;;29.35;45.63;94937.53;5134045;28;952;-50
2022/08/17 13:38:36;;;;;;;;;;;;;;;29.44;45.51;94934.16;5137215;27;1983;-50
2022/08/17 13:41:06;;;;;;;;;;;;;;;29.45;45.93;94930.31;5137973;27;945;-50
2022/08/17 13:43:36;;;;;;;;;;;;;;;29.43;46.62;94927.84;5141580;27;1264;-50